createdAt,value
2022-11-24T00:00:19.261Z,8.17
2022-11-24T00:03:07.813Z,5.50
2022-11-24T00:05:57.837Z,16.07
2022-11-24T00:08:47.681Z,9.13
2022-11-24T00:11:38.077Z,13.43
2022-11-24T00:14:26.604Z,5.67
2022-11-24T00:17:15.114Z,8.67
2022-11-24T00:20:04.211Z,7.00
2022-11-24T00:22:54.032Z,11.00
2022-11-24T00:25:42.457Z,6.43
2022-11-24T00:28:31.005Z,12.60
2022-11-24T00:31:21.400Z,9.83
2022-11-24T00:34:12.077Z,6.00
2022-11-24T00:37:00.564Z,7.73
2022-11-24T00:39:50.353Z,8.60
2022-11-24T00:42:38.802Z,8.23
2022-11-24T00:45:27.231Z,5.57
2022-11-24T00:48:15.701Z,9.13
2022-11-24T00:51:05.553Z,6.40
2022-11-24T00:53:54.162Z,11.93
2022-11-24T00:56:43.922Z,4.00
2022-11-24T00:59:32.685Z,7.93
2022-11-24T01:02:21.168Z,5.03
2022-11-24T01:05:09.952Z,7.10
2022-11-24T01:07:58.380Z,10.37
2022-11-24T01:10:46.817Z,7.10
2022-11-24T01:13:36.658Z,9.00
2022-11-24T01:16:26.935Z,3.17
2022-11-24T01:19:15.397Z,6.83
2022-11-24T01:22:03.835Z,5.30
2022-11-24T01:24:52.276Z,4.50
2022-11-24T01:27:40.735Z,4.77
2022-11-24T01:30:30.652Z,3.77
2022-11-24T01:33:19.198Z,6.80
2022-11-24T01:36:07.847Z,3.13
2022-11-24T01:38:56.279Z,4.13
2022-11-24T01:41:44.718Z,4.40
2022-11-24T01:44:33.615Z,12.27
2022-11-24T01:47:30.165Z,7.53
2022-11-24T01:50:18.866Z,9.27
2022-11-24T01:53:07.415Z,4.03
2022-11-24T01:55:55.858Z,5.27
2022-11-24T01:58:46.474Z,6.80
2022-11-24T02:01:35.052Z,7.20
2022-11-24T02:04:28.253Z,5.87
2022-11-24T02:07:16.973Z,5.93
2022-11-24T02:10:08.406Z,4.57
2022-11-24T02:12:58.987Z,4.93
2022-11-24T02:15:47.473Z,4.43
2022-11-24T02:18:35.995Z,7.00
2022-11-24T02:21:25.871Z,5.00
2022-11-24T02:24:19.847Z,8.30
2022-11-24T02:27:11.107Z,7.57
2022-11-24T02:29:59.667Z,9.07
2022-11-24T02:32:48.113Z,5.47
2022-11-24T02:35:36.995Z,3.53
2022-11-24T02:38:32.942Z,4.50
2022-11-24T02:41:22.964Z,5.57
2022-11-24T02:44:15.046Z,4.90
2022-11-24T02:47:04.961Z,3.13
2022-11-24T02:49:53.441Z,4.53
2022-11-24T02:52:41.881Z,10.63
2022-11-24T02:55:30.411Z,11.57
2022-11-24T02:58:18.834Z,5.57
2022-11-24T03:01:08.765Z,4.60
2022-11-24T03:03:57.263Z,3.40
2022-11-24T03:06:45.696Z,4.60
2022-11-24T03:09:34.102Z,5.30
2022-11-24T03:12:22.567Z,3.77
2022-11-24T03:15:11.813Z,5.90
2022-11-24T03:18:01.873Z,6.23
2022-11-24T03:20:50.310Z,5.03
2022-11-24T03:23:38.734Z,11.70
2022-11-24T03:26:27.845Z,6.90
2022-11-24T03:29:16.841Z,7.03
2022-11-24T03:32:05.900Z,5.40
2022-11-24T03:34:55.690Z,4.07
2022-11-24T03:37:44.118Z,6.20
2022-11-24T03:40:32.566Z,5.23
2022-11-24T03:43:21.391Z,5.87
2022-11-24T03:46:10.213Z,8.43
2022-11-24T03:48:58.687Z,4.27
2022-11-24T03:51:48.488Z,8.73
2022-11-24T03:54:36.909Z,6.00
2022-11-24T03:57:25.371Z,5.80
2022-11-24T04:00:14.454Z,8.77
2022-11-24T04:03:05.564Z,8.07
2022-11-24T04:05:54.032Z,5.17
2022-11-24T04:08:43.816Z,7.07
2022-11-24T04:11:49.879Z,7.97
2022-11-24T04:14:38.477Z,5.20
2022-11-24T04:17:26.951Z,9.63
2022-11-24T04:20:16.012Z,10.83
2022-11-24T04:23:04.787Z,5.97
2022-11-24T04:25:54.582Z,6.43
2022-11-24T04:28:43.028Z,9.40
2022-11-24T04:31:31.488Z,11.30
2022-11-24T04:34:19.982Z,7.93
2022-11-24T04:37:08.403Z,4.30
2022-11-24T04:39:56.875Z,11.00
2022-11-24T04:42:53.446Z,8.13
2022-11-24T04:45:41.869Z,11.40
2022-11-24T04:48:30.327Z,9.97
2022-11-24T04:51:18.744Z,7.83
2022-11-24T04:54:07.903Z,6.03
2022-11-24T04:56:56.342Z,7.93
2022-11-24T04:59:46.148Z,7.53
2022-11-24T05:02:34.684Z,7.13
2022-11-24T05:05:23.144Z,7.03
2022-11-24T05:08:11.584Z,9.33
2022-11-24T05:11:05.123Z,4.60
2022-11-24T05:13:53.935Z,11.37
2022-11-24T05:16:43.889Z,8.80
2022-11-24T05:19:32.605Z,7.60
2022-11-24T05:22:21.145Z,5.40
2022-11-24T05:25:10.132Z,9.10
2022-11-24T05:28:00.646Z,7.30
2022-11-24T05:30:49.145Z,5.63
2022-11-24T05:33:38.952Z,9.73
2022-11-24T05:36:59.519Z,12.13
2022-11-24T05:39:47.983Z,8.30
2022-11-24T05:42:47.149Z,11.67
2022-11-24T05:45:36.009Z,9.47
2022-11-24T05:48:24.513Z,6.03
2022-11-24T05:51:14.286Z,10.73
2022-11-24T05:54:02.709Z,4.77
2022-11-24T05:56:51.166Z,7.80
2022-11-24T05:59:39.760Z,4.80
2022-11-24T06:02:28.248Z,9.37
2022-11-24T06:05:16.900Z,9.90
2022-11-24T06:08:06.855Z,10.80
2022-11-24T06:10:55.295Z,11.43
2022-11-24T06:13:44.259Z,11.93
2022-11-24T06:16:33.214Z,11.13
2022-11-24T06:19:21.685Z,10.83
2022-11-24T06:22:10.195Z,8.17
2022-11-24T06:25:00.092Z,10.90
2022-11-24T06:27:48.534Z,8.50
2022-11-24T06:30:36.987Z,8.07
2022-11-24T06:33:25.406Z,13.20
2022-11-24T06:36:14.815Z,15.63
2022-11-24T06:39:03.394Z,11.83
2022-11-24T06:41:53.666Z,15.67
2022-11-24T06:44:42.111Z,14.33
2022-11-24T06:47:30.614Z,12.40
2022-11-24T06:50:19.135Z,16.03
2022-11-24T06:53:07.889Z,16.77
2022-11-24T06:55:58.862Z,10.57
2022-11-24T06:58:49.937Z,16.90
2022-11-24T07:01:38.536Z,9.90
2022-11-24T07:04:27.029Z,10.70
2022-11-24T07:07:15.537Z,11.13
2022-11-24T07:10:04.362Z,12.67
2022-11-24T07:12:52.818Z,8.10
2022-11-24T07:15:42.626Z,15.27
2022-11-24T07:18:31.063Z,10.30
2022-11-24T07:21:20.321Z,9.67
2022-11-24T07:24:09.059Z,12.00
2022-11-24T07:26:57.511Z,9.10
2022-11-24T07:29:45.974Z,10.53
2022-11-24T07:32:35.822Z,5.03
2022-11-24T07:35:24.689Z,9.70
2022-11-24T07:38:13.282Z,6.20
2022-11-24T07:41:02.378Z,5.50
2022-11-24T07:43:51.587Z,11.90
2022-11-24T07:46:40.127Z,9.33
2022-11-24T07:49:30.038Z,6.03
2022-11-24T07:52:18.566Z,7.07
2022-11-24T07:55:08.491Z,9.27
2022-11-24T07:58:00.364Z,4.07
2022-11-24T08:00:48.815Z,5.40
2022-11-24T08:03:37.394Z,3.40
2022-11-24T08:06:36.195Z,3.67
2022-11-24T08:09:28.018Z,5.27
2022-11-24T08:12:17.424Z,3.87
2022-11-24T08:15:10.966Z,3.30
2022-11-24T08:18:02.510Z,6.90
2022-11-24T08:20:51.129Z,7.57
2022-11-24T08:23:41.121Z,3.90
2022-11-24T08:26:29.546Z,4.70
2022-11-24T08:29:17.997Z,3.50
2022-11-24T08:32:06.828Z,2.80
2022-11-24T08:34:59.648Z,3.73
2022-11-24T08:38:01.686Z,3.13
2022-11-24T08:40:54.354Z,2.80
2022-11-24T08:43:43.007Z,3.20
2022-11-24T08:46:31.661Z,2.10
2022-11-24T08:49:21.586Z,5.43
2022-11-24T08:52:10.415Z,1.73
2022-11-24T08:54:58.942Z,5.47
2022-11-24T08:57:48.863Z,4.00
2022-11-24T09:00:37.331Z,2.90
2022-11-24T09:03:25.790Z,1.90
2022-11-24T09:06:14.385Z,2.30
2022-11-24T09:09:03.092Z,3.13
2022-11-24T09:11:51.604Z,2.70
2022-11-24T09:14:43.030Z,2.90
2022-11-24T09:17:32.988Z,2.93
2022-11-24T09:20:21.669Z,2.20
2022-11-24T09:23:10.279Z,2.97
2022-11-24T09:26:04.590Z,2.37
2022-11-24T09:28:55.320Z,2.53
2022-11-24T09:31:45.168Z,3.87
2022-11-24T09:34:33.740Z,2.37
2022-11-24T09:37:22.396Z,1.70
2022-11-24T09:40:13.140Z,1.90
2022-11-24T09:43:04.936Z,3.00
2022-11-24T09:46:05.412Z,2.77
2022-11-24T09:48:58.757Z,2.43
2022-11-24T09:51:49.733Z,5.17
2022-11-24T09:54:38.829Z,3.50
2022-11-24T09:57:31.478Z,4.17
2022-11-24T10:00:24.443Z,4.93
2022-11-24T10:03:21.021Z,4.03
2022-11-24T10:06:20.676Z,3.60
2022-11-24T10:09:16.997Z,3.87
2022-11-24T10:12:31.918Z,3.93
2022-11-24T10:15:25.672Z,3.17
2022-11-24T10:18:28.690Z,5.53
2022-11-24T10:21:59.453Z,6.20
2022-11-24T10:25:04.459Z,3.80
2022-11-24T10:27:57.788Z,7.60
2022-11-24T10:30:46.444Z,7.00
2022-11-24T10:33:35.156Z,5.53
2022-11-24T10:36:27.470Z,5.80
2022-11-24T10:39:21.860Z,9.03
2022-11-24T10:42:15.461Z,7.37
2022-11-24T10:45:09.562Z,9.80
2022-11-24T10:47:58.693Z,8.83
2022-11-24T10:50:47.233Z,3.63
2022-11-24T10:53:36.648Z,6.70
2022-11-24T10:56:26.535Z,7.20
2022-11-24T10:59:33.365Z,7.60
2022-11-24T11:02:37.861Z,8.33
2022-11-24T11:05:41.902Z,7.40
2022-11-24T11:08:31.307Z,6.73
2022-11-24T11:11:23.635Z,7.10
2022-11-24T11:14:13.875Z,5.67
2022-11-24T11:17:03.071Z,10.33
2022-11-24T11:19:56.892Z,6.53
2022-11-24T11:22:50.408Z,7.33
2022-11-24T11:25:41.063Z,6.10
2022-11-24T11:28:31.312Z,7.77
2022-11-24T11:31:22.821Z,6.20
2022-11-24T11:34:23.312Z,10.27
2022-11-24T11:37:15.959Z,8.70
2022-11-24T11:40:09.500Z,6.80
2022-11-24T11:43:03.286Z,12.57
2022-11-24T11:46:00.670Z,11.80
2022-11-24T11:48:50.653Z,10.73
2022-11-24T11:52:05.172Z,11.00
2022-11-24T11:55:09.872Z,6.93
2022-11-24T11:58:06.537Z,14.23
2022-11-24T12:01:01.419Z,9.27
2022-11-24T12:04:02.973Z,7.07
2022-11-24T12:07:06.121Z,10.10
2022-11-24T12:10:01.528Z,4.90
2022-11-24T12:13:16.012Z,11.47
2022-11-24T12:16:12.713Z,8.57
2022-11-24T12:19:15.020Z,5.33
2022-11-24T12:22:08.526Z,9.50
2022-11-24T12:24:59.846Z,5.93
2022-11-24T12:27:56.686Z,8.47
2022-11-24T12:30:51.595Z,10.03
2022-11-24T12:34:04.177Z,7.63
2022-11-24T12:37:08.920Z,6.27
2022-11-24T12:40:05.225Z,7.40
2022-11-24T12:42:59.033Z,10.73
2022-11-24T12:45:54.331Z,10.40
2022-11-24T12:48:52.260Z,7.23
2022-11-24T12:51:43.736Z,7.60
2022-11-24T12:54:38.299Z,13.40
2022-11-24T12:57:29.990Z,7.00
2022-11-24T13:00:22.364Z,7.43
2022-11-24T13:03:19.328Z,6.27
2022-11-24T13:06:13.413Z,10.93
2022-11-24T13:09:09.104Z,7.27
2022-11-24T13:12:12.086Z,6.17
2022-11-24T13:15:00.583Z,8.97
2022-11-24T13:18:05.552Z,10.23
2022-11-24T13:20:58.832Z,12.17
2022-11-24T13:23:57.386Z,6.60
2022-11-24T13:26:48.354Z,6.83
2022-11-24T13:29:38.649Z,16.43
2022-11-24T13:32:59.338Z,7.63
2022-11-24T13:36:23.625Z,3.70
2022-11-24T13:39:20.889Z,10.17
2022-11-24T13:42:09.485Z,6.60
2022-11-24T13:45:00.301Z,10.10
2022-11-24T13:47:48.923Z,9.43
2022-11-24T13:51:16.118Z,11.47
2022-11-24T13:54:04.716Z,6.97
2022-11-24T13:56:53.192Z,7.73
2022-11-24T13:59:41.783Z,11.97
2022-11-24T14:02:34.496Z,6.93
2022-11-24T14:05:25.277Z,8.90
2022-11-24T14:08:19.555Z,8.13
2022-11-24T14:11:17.867Z,12.00
2022-11-24T14:14:16.182Z,5.67
2022-11-24T14:17:19.849Z,11.83
2022-11-24T14:20:18.369Z,6.80
2022-11-24T14:23:10.037Z,9.67
2022-11-24T14:25:58.631Z,8.00
2022-11-24T14:28:47.533Z,6.80
2022-11-24T14:31:36.185Z,7.40
2022-11-24T14:34:26.716Z,8.37
2022-11-24T14:37:16.568Z,8.30
2022-11-24T14:40:05.974Z,8.53
2022-11-24T14:42:54.524Z,10.70
2022-11-24T14:45:49.671Z,5.10
2022-11-24T14:48:40.129Z,9.83
2022-11-24T14:51:30.931Z,6.77
2022-11-24T14:54:22.509Z,7.63
2022-11-24T14:57:25.563Z,8.87
2022-11-24T15:00:20.020Z,5.73
2022-11-24T15:03:20.313Z,12.03
2022-11-24T15:06:17.266Z,5.00
2022-11-24T15:09:05.826Z,5.17
2022-11-24T15:11:56.428Z,6.33
2022-11-24T15:14:51.237Z,8.87
2022-11-24T15:17:46.907Z,6.87
2022-11-24T15:20:37.565Z,8.30
2022-11-24T15:23:27.605Z,4.40
2022-11-24T15:26:31.269Z,7.83
2022-11-24T15:29:22.359Z,8.13
2022-11-24T15:32:13.690Z,5.87
2022-11-24T15:35:02.278Z,5.80
2022-11-24T15:37:50.894Z,5.43
2022-11-24T15:40:39.807Z,5.53
2022-11-24T15:43:31.018Z,3.43
2022-11-24T15:46:20.941Z,7.43
2022-11-24T15:49:09.470Z,9.93
2022-11-24T15:51:58.002Z,5.03
2022-11-24T15:54:46.821Z,8.53
2022-11-24T15:57:35.387Z,7.93
2022-11-24T16:00:24.689Z,4.80
2022-11-24T16:03:45.055Z,9.40
2022-11-24T16:06:24.931Z,8.43
2022-11-24T16:09:16.508Z,6.90
2022-11-24T16:12:05.321Z,7.97
2022-11-24T16:14:53.871Z,9.27
2022-11-24T16:17:42.579Z,12.40
2022-11-24T16:20:34.950Z,8.73
2022-11-24T16:23:23.549Z,6.73
2022-11-24T16:26:12.127Z,10.93
2022-11-24T16:29:00.650Z,12.10
2022-11-24T16:31:50.301Z,16.57
2022-11-24T16:34:38.865Z,20.97
2022-11-24T16:37:28.682Z,16.63
2022-11-24T16:40:18.159Z,11.67
2022-11-24T16:43:06.663Z,14.27
2022-11-24T16:46:01.730Z,10.13
2022-11-24T16:48:51.971Z,11.50
2022-11-24T16:51:42.410Z,19.10
2022-11-24T16:54:32.588Z,17.97
2022-11-24T16:57:21.462Z,18.60
2022-11-24T17:00:11.077Z,20.63
2022-11-24T17:02:59.566Z,19.00
2022-11-24T17:05:57.789Z,17.70
2022-11-24T17:08:47.127Z,19.37
2022-11-24T17:11:37.103Z,21.83
2022-11-24T17:14:25.758Z,22.73
2022-11-24T17:17:14.302Z,18.67
2022-11-24T17:20:02.742Z,18.00
2022-11-24T17:22:51.297Z,21.47
2022-11-24T17:25:39.781Z,17.90
2022-11-24T17:28:29.664Z,19.17
2022-11-24T17:31:22.009Z,21.37
2022-11-24T17:34:12.386Z,29.53
2022-11-24T17:37:00.958Z,21.77
2022-11-24T17:40:05.927Z,21.87
2022-11-24T17:42:59.655Z,25.83
2022-11-24T17:45:55.627Z,22.50
2022-11-24T17:48:44.211Z,21.17
2022-11-24T17:51:32.676Z,22.77
2022-11-24T17:54:45.438Z,26.00
2022-11-24T17:57:30.229Z,29.83
2022-11-24T18:00:19.589Z,27.97
2022-11-24T18:03:09.553Z,26.53
2022-11-24T18:05:58.085Z,23.90
2022-11-24T18:08:48.061Z,30.50
2022-11-24T18:11:36.709Z,28.03
2022-11-24T18:14:25.389Z,33.73
2022-11-24T18:17:13.897Z,30.20
2022-11-24T18:20:03.837Z,23.63
2022-11-24T18:23:05.469Z,21.40
2022-11-24T18:25:54.877Z,19.93
2022-11-24T18:28:44.042Z,19.17
2022-11-24T18:31:34.244Z,20.47
2022-11-24T18:34:24.718Z,15.93
2022-11-24T18:37:16.338Z,28.30
2022-11-24T18:40:05.534Z,24.23
2022-11-24T18:42:54.095Z,26.27
2022-11-24T18:45:42.842Z,27.20
2022-11-24T18:48:31.469Z,36.27
2022-11-24T18:51:20.199Z,28.30
2022-11-24T18:54:10.212Z,29.57
2022-11-24T18:57:03.131Z,29.50
2022-11-24T18:59:52.104Z,46.30
2022-11-24T19:02:40.694Z,32.00
2022-11-24T19:05:29.297Z,39.07
2022-11-24T19:08:17.822Z,28.27
2022-11-24T19:11:07.886Z,20.33
2022-11-24T19:13:57.086Z,24.40
2022-11-24T19:16:47.594Z,28.33
2022-11-24T19:19:36.221Z,19.47
2022-11-24T19:22:24.789Z,22.43
2022-11-24T19:25:13.282Z,16.77
2022-11-24T19:28:03.117Z,18.67
2022-11-24T19:30:51.651Z,17.83
2022-11-24T19:33:40.665Z,16.70
2022-11-24T19:36:29.232Z,27.53
2022-11-24T19:39:17.817Z,15.77
2022-11-24T19:42:06.408Z,20.50
2022-11-24T19:44:56.881Z,15.93
2022-11-24T19:47:45.636Z,32.07
2022-11-24T19:50:34.193Z,24.40
2022-11-24T19:53:22.663Z,41.00
2022-11-24T19:56:12.482Z,27.30
2022-11-24T19:59:00.999Z,22.23
2022-11-24T20:01:50.990Z,23.13
2022-11-24T20:04:42.458Z,19.57
2022-11-24T20:07:30.963Z,22.43
2022-11-24T20:10:19.578Z,17.90
2022-11-24T20:13:08.048Z,21.80
2022-11-24T20:15:56.513Z,24.07
2022-11-24T20:18:48.039Z,18.57
2022-11-24T20:21:37.649Z,18.03
2022-11-24T20:24:26.126Z,16.03
2022-11-24T20:27:14.796Z,18.57
2022-11-24T20:30:03.339Z,20.20
2022-11-24T20:32:51.853Z,19.90
2022-11-24T20:35:41.779Z,19.87
2022-11-24T20:38:30.855Z,22.13
2022-11-24T20:41:21.788Z,17.33
2022-11-24T20:44:13.646Z,25.80
2022-11-24T20:47:03.175Z,19.80
2022-11-24T20:49:51.803Z,17.60
2022-11-24T20:52:41.607Z,20.50
2022-11-24T20:55:31.840Z,19.33
2022-11-24T20:58:20.338Z,20.40
2022-11-24T21:01:10.258Z,19.43
2022-11-24T21:04:00.497Z,21.73
2022-11-24T21:06:48.990Z,27.80
2022-11-24T21:09:38.815Z,21.40
2022-11-24T21:12:27.315Z,19.80
2022-11-24T21:15:16.021Z,21.90
2022-11-24T21:18:05.581Z,19.80
2022-11-24T21:20:54.081Z,21.87
2022-11-24T21:23:42.761Z,18.80
2022-11-24T21:26:32.748Z,29.30
2022-11-24T21:29:23.535Z,22.80
2022-11-24T21:32:12.314Z,16.00
2022-11-24T21:35:00.860Z,23.00
2022-11-24T21:37:49.354Z,20.40
2022-11-24T21:40:37.850Z,21.93
2022-11-24T21:43:28.510Z,21.63
2022-11-24T21:46:17.771Z,19.67
2022-11-24T21:49:06.407Z,24.17
2022-11-24T21:51:55.974Z,19.60
2022-11-24T21:54:44.778Z,18.70
2022-11-24T21:57:33.265Z,21.13
2022-11-24T22:00:23.574Z,18.10
2022-11-24T22:03:12.220Z,18.57
2022-11-24T22:06:01.533Z,17.23
2022-11-24T22:08:50.564Z,23.53
2022-11-24T22:11:39.126Z,16.60
2022-11-24T22:14:27.852Z,29.20
2022-11-24T22:17:17.771Z,25.20
2022-11-24T22:20:07.867Z,20.27
2022-11-24T22:22:56.400Z,23.90
2022-11-24T22:25:44.897Z,21.50
2022-11-24T22:28:33.892Z,21.63
2022-11-24T22:31:23.766Z,20.97
2022-11-24T22:34:13.767Z,23.30
2022-11-24T22:37:02.366Z,17.87
2022-11-24T22:39:51.969Z,17.37
2022-11-24T22:42:40.559Z,24.03
2022-11-24T22:45:29.162Z,21.70
2022-11-24T22:48:17.839Z,18.90
2022-11-24T22:51:09.267Z,16.43
2022-11-24T22:53:59.041Z,16.10
2022-11-24T22:56:47.531Z,16.47
2022-11-24T22:59:35.987Z,22.03
2022-11-24T23:02:24.540Z,19.03
2022-11-24T23:05:16.766Z,16.97
2022-11-24T23:08:09.198Z,17.70
2022-11-24T23:11:02.037Z,14.70
2022-11-24T23:13:53.765Z,17.43
2022-11-24T23:16:42.800Z,19.97
2022-11-24T23:19:31.311Z,22.23
2022-11-24T23:22:19.757Z,17.50
2022-11-24T23:25:10.214Z,18.03
2022-11-24T23:27:58.688Z,22.73
2022-11-24T23:30:47.168Z,24.83
2022-11-24T23:33:36.003Z,18.97
2022-11-24T23:36:24.444Z,22.47
2022-11-24T23:39:14.222Z,26.07
2022-11-24T23:42:04.107Z,20.53
2022-11-24T23:44:52.589Z,14.70
2022-11-24T23:47:41.106Z,14.40
2022-11-24T23:50:29.958Z,20.50
2022-11-24T23:53:18.414Z,22.33
2022-11-24T23:56:07.655Z,22.80
2022-11-24T23:58:57.500Z,16.70
